createdAt,value
2017-11-07T00:01:54.436Z,12.90
2017-11-07T00:04:21.548Z,14.00
2017-11-07T00:06:47.941Z,14.10
2017-11-07T00:09:16.091Z,12.52
2017-11-07T00:11:42.609Z,13.95
2017-11-07T00:14:09.035Z,14.70
2017-11-07T00:16:35.371Z,15.32
2017-11-07T00:19:01.708Z,13.80
2017-11-07T00:21:28.055Z,14.20
2017-11-07T00:23:54.387Z,14.60
2017-11-07T00:26:20.803Z,14.27
2017-11-07T00:28:47.141Z,11.70
2017-11-07T00:31:13.476Z,13.95
2017-11-07T00:33:39.827Z,14.60
2017-11-07T00:36:06.192Z,14.55
2017-11-07T00:38:32.554Z,16.73
2017-11-07T00:40:58.934Z,17.08
2017-11-07T00:43:27.043Z,14.60
2017-11-07T00:45:54.205Z,15.15
2017-11-07T00:48:20.555Z,14.98
2017-11-07T00:50:46.915Z,14.30
2017-11-07T00:53:13.235Z,14.95
2017-11-07T00:55:39.568Z,15.10
2017-11-07T00:58:05.920Z,15.45
2017-11-07T01:00:32.240Z,16.15
2017-11-07T01:02:58.598Z,16.37
2017-11-07T01:05:25.719Z,16.75
2017-11-07T01:07:52.050Z,16.83
2017-11-07T01:10:18.431Z,16.10
2017-11-07T01:12:44.767Z,16.17
2017-11-07T01:15:11.115Z,16.87
2017-11-07T01:17:37.471Z,15.02
2017-11-07T01:20:03.814Z,17.10
2017-11-07T01:22:30.139Z,16.65
2017-11-07T01:24:56.483Z,17.17
2017-11-07T01:27:23.738Z,17.25
2017-11-07T01:29:50.076Z,17.35
2017-11-07T01:32:17.192Z,18.58
2017-11-07T01:34:43.567Z,17.90
2017-11-07T01:37:10.667Z,20.88
2017-11-07T01:39:37.006Z,18.30
2017-11-07T01:42:03.395Z,16.80
2017-11-07T01:44:30.488Z,18.48
2017-11-07T01:46:56.867Z,19.75
2017-11-07T01:49:23.969Z,18.48
2017-11-07T01:51:50.338Z,20.90
2017-11-07T01:54:16.707Z,21.55
2017-11-07T01:56:43.084Z,20.33
2017-11-07T01:59:09.496Z,21.60
2017-11-07T02:01:35.907Z,20.75
2017-11-07T02:04:02.295Z,21.90
2017-11-07T02:06:28.685Z,20.50
2017-11-07T02:08:55.039Z,20.45
2017-11-07T02:11:21.416Z,21.77
2017-11-07T02:13:48.523Z,21.12
2017-11-07T02:16:14.887Z,20.12
2017-11-07T02:18:42.114Z,18.60
2017-11-07T02:21:08.482Z,17.80
2017-11-07T02:23:35.599Z,17.05
2017-11-07T02:26:01.992Z,19.33
2017-11-07T02:28:28.339Z,18.58
2017-11-07T02:30:55.435Z,17.58
2017-11-07T02:33:22.575Z,17.73
2017-11-07T02:35:48.967Z,16.98
2017-11-07T02:38:15.365Z,16.25
2017-11-07T02:40:41.811Z,16.73
2017-11-07T02:43:08.159Z,16.42
2017-11-07T02:45:34.546Z,14.55
2017-11-07T02:48:00.923Z,14.77
2017-11-07T02:50:27.279Z,14.77
2017-11-07T02:52:53.612Z,15.25
2017-11-07T02:55:19.948Z,14.68
2017-11-07T02:57:46.535Z,14.50
2017-11-07T03:00:12.887Z,12.60
2017-11-07T03:02:39.242Z,14.60
2017-11-07T03:05:05.582Z,12.55
2017-11-07T03:07:31.931Z,11.27
2017-11-07T03:09:58.290Z,12.80
2017-11-07T03:12:25.368Z,12.85
2017-11-07T03:14:51.708Z,13.07
2017-11-07T03:17:18.043Z,11.73
2017-11-07T03:19:44.607Z,11.73
2017-11-07T03:22:10.970Z,11.25
2017-11-07T03:24:38.062Z,10.52
2017-11-07T03:27:04.404Z,10.80
2017-11-07T03:29:30.748Z,11.23
2017-11-07T03:31:57.074Z,10.93
2017-11-07T03:34:23.421Z,11.15
2017-11-07T03:36:49.811Z,12.65
2017-11-07T03:39:16.171Z,9.85
2017-11-07T03:41:42.563Z,9.80
2017-11-07T03:44:08.928Z,10.20
2017-11-07T03:46:35.301Z,9.85
2017-11-07T03:49:02.402Z,10.38
2017-11-07T03:51:28.813Z,10.52
2017-11-07T03:53:55.135Z,8.85
2017-11-07T03:56:21.479Z,8.02
2017-11-07T03:58:47.842Z,9.05
2017-11-07T04:01:14.172Z,9.73
2017-11-07T04:03:40.531Z,9.35
2017-11-07T04:06:07.906Z,8.60
2017-11-07T04:08:34.278Z,8.05
2017-11-07T04:11:00.635Z,8.30
2017-11-07T04:13:27.834Z,9.07
2017-11-07T04:15:54.158Z,8.55
2017-11-07T04:18:21.267Z,8.30
2017-11-07T04:20:47.608Z,7.40
2017-11-07T04:23:13.939Z,7.47
2017-11-07T04:25:41.024Z,7.65
2017-11-07T04:28:07.380Z,6.95
2017-11-07T04:30:33.707Z,8.48
2017-11-07T04:33:00.062Z,7.78
2017-11-07T04:35:26.395Z,8.38
2017-11-07T04:37:52.765Z,9.13
2017-11-07T04:40:19.899Z,9.73
2017-11-07T04:42:46.218Z,8.88
2017-11-07T04:45:12.579Z,8.95
2017-11-07T04:47:39.676Z,9.68
2017-11-07T04:50:06.032Z,10.45
2017-11-07T04:52:32.355Z,9.65
2017-11-07T04:54:58.702Z,8.95
2017-11-07T04:57:25.044Z,10.75
2017-11-07T04:59:51.394Z,11.38
2017-11-07T05:02:18.481Z,11.30
2017-11-07T05:04:44.842Z,12.13
2017-11-07T05:07:11.208Z,14.30
2017-11-07T05:09:38.316Z,12.10
2017-11-07T05:12:04.686Z,15.40
2017-11-07T05:14:31.754Z,17.37
2017-11-07T05:16:58.123Z,15.70
2017-11-07T05:19:24.491Z,17.05
2017-11-07T05:21:51.588Z,15.65
2017-11-07T05:24:17.943Z,16.95
2017-11-07T05:26:44.302Z,18.33
2017-11-07T05:29:10.674Z,15.48
2017-11-07T05:31:37.013Z,16.62
2017-11-07T05:34:03.364Z,16.75
2017-11-07T05:36:29.747Z,14.95
2017-11-07T05:38:56.817Z,16.37
2017-11-07T05:41:23.175Z,15.00
2017-11-07T05:43:49.875Z,14.73
2017-11-07T05:46:17.013Z,16.02
2017-11-07T05:48:44.167Z,15.90
2017-11-07T05:51:11.304Z,16.10
2017-11-07T05:53:37.651Z,15.07
2017-11-07T05:56:04.739Z,16.65
2017-11-07T05:58:31.094Z,15.35
2017-11-07T06:00:57.530Z,15.60
2017-11-07T06:03:23.879Z,15.65
2017-11-07T06:05:50.543Z,17.40
2017-11-07T06:08:17.628Z,15.95
2017-11-07T06:10:44.004Z,15.75
2017-11-07T06:13:10.358Z,14.00
2017-11-07T06:15:37.435Z,15.20
2017-11-07T06:18:03.800Z,14.38
2017-11-07T06:20:31.133Z,17.35
2017-11-07T06:22:57.491Z,14.35
2017-11-07T06:25:23.848Z,15.73
2017-11-07T06:27:50.936Z,14.23
2017-11-07T06:30:18.316Z,14.80
2017-11-07T06:32:44.667Z,14.82
2017-11-07T06:35:11.003Z,16.27
2017-11-07T06:37:37.352Z,14.38
2017-11-07T06:40:03.739Z,15.38
2017-11-07T06:42:30.112Z,14.63
2017-11-07T06:44:57.226Z,13.43
2017-11-07T06:47:23.588Z,15.07
2017-11-07T06:49:50.711Z,14.13
2017-11-07T06:52:17.038Z,14.82
2017-11-07T06:54:43.381Z,15.00
2017-11-07T06:57:09.771Z,15.57
2017-11-07T06:59:36.138Z,15.77
2017-11-07T07:02:02.516Z,15.23
2017-11-07T07:04:29.619Z,15.32
2017-11-07T07:06:55.957Z,13.15
2017-11-07T07:09:22.357Z,14.57
2017-11-07T07:11:48.671Z,13.25
2017-11-07T07:14:14.995Z,12.85
2017-11-07T07:16:42.173Z,12.73
2017-11-07T07:19:08.506Z,13.30
2017-11-07T07:21:34.836Z,10.68
2017-11-07T07:24:01.931Z,12.43
2017-11-07T07:26:28.278Z,13.60
2017-11-07T07:28:55.346Z,10.90
2017-11-07T07:31:21.688Z,11.15
2017-11-07T07:33:48.028Z,12.18
2017-11-07T07:36:14.397Z,10.57
2017-11-07T07:38:40.763Z,10.60
2017-11-07T07:41:07.835Z,13.07
2017-11-07T07:43:34.187Z,11.12
2017-11-07T07:46:00.522Z,9.77
2017-11-07T07:48:26.847Z,10.05
2017-11-07T07:50:53.189Z,9.98
2017-11-07T07:53:19.556Z,10.25
2017-11-07T07:55:45.875Z,11.18
2017-11-07T07:58:12.216Z,10.13
2017-11-07T08:00:39.358Z,10.35
2017-11-07T08:03:05.782Z,10.15
2017-11-07T08:05:32.155Z,9.75
2017-11-07T08:07:59.341Z,10.25
2017-11-07T08:10:25.723Z,8.98
2017-11-07T08:12:52.832Z,14.82
2017-11-07T08:15:19.223Z,11.12
2017-11-07T08:17:46.350Z,16.40
2017-11-07T08:20:12.714Z,13.07
2017-11-07T08:22:39.067Z,12.48
2017-11-07T08:25:05.386Z,9.05
2017-11-07T08:27:31.748Z,9.65
2017-11-07T08:29:58.103Z,9.30
2017-11-07T08:32:24.447Z,8.43
2017-11-07T08:34:51.685Z,9.02
2017-11-07T08:37:18.031Z,9.10
2017-11-07T08:39:44.392Z,9.30
2017-11-07T08:42:10.731Z,9.63
2017-11-07T08:44:37.203Z,10.63
2017-11-07T08:47:03.537Z,10.32
2017-11-07T08:49:29.883Z,10.70
2017-11-07T08:51:56.228Z,11.88
2017-11-07T08:54:23.331Z,11.10
2017-11-07T08:56:49.675Z,11.00
2017-11-07T08:59:16.020Z,12.30
2017-11-07T09:01:42.384Z,13.32
2017-11-07T09:04:09.474Z,20.15
2017-11-07T09:06:35.832Z,18.45
2017-11-07T09:09:02.235Z,15.10
2017-11-07T09:11:28.615Z,22.62
2017-11-07T09:13:55.028Z,14.27
2017-11-07T09:16:21.388Z,18.08
2017-11-07T09:18:48.515Z,13.00
2017-11-07T09:21:14.887Z,14.80
2017-11-07T09:23:42.024Z,15.32
2017-11-07T09:26:09.141Z,13.57
2017-11-07T09:28:35.501Z,14.40
2017-11-07T09:31:01.855Z,15.63
2017-11-07T09:33:28.949Z,14.27
2017-11-07T09:35:55.283Z,14.95
2017-11-07T09:38:21.606Z,14.30
2017-11-07T09:40:48.060Z,20.23
2017-11-07T09:43:14.379Z,40.33
2017-11-07T09:45:40.730Z,89.97
2017-11-07T09:48:07.095Z,23.52
2017-11-07T09:50:34.161Z,16.45
2017-11-07T09:53:00.513Z,16.50
2017-11-07T09:55:26.883Z,16.27
2017-11-07T09:57:53.224Z,14.63
2017-11-07T10:00:20.326Z,14.48
2017-11-07T10:02:52.500Z,15.93
2017-11-07T10:05:18.851Z,16.25
2017-11-07T10:07:46.218Z,18.58
2017-11-07T10:10:12.547Z,16.00
2017-11-07T10:12:38.911Z,16.92
2017-11-07T10:15:05.255Z,16.75
2017-11-07T10:17:31.653Z,16.83
2017-11-07T10:19:57.976Z,16.75
2017-11-07T10:22:24.360Z,17.50
2017-11-07T10:24:50.769Z,16.40
2017-11-07T10:27:17.884Z,19.20
2017-11-07T10:29:44.271Z,18.55
2017-11-07T10:32:10.637Z,17.80
2017-11-07T10:34:37.011Z,20.20
2017-11-07T10:37:04.123Z,19.90
2017-11-07T10:39:30.496Z,18.85
2017-11-07T10:41:57.587Z,18.87
2017-11-07T10:44:23.967Z,18.48
2017-11-07T10:46:51.043Z,18.90
2017-11-07T10:49:17.425Z,17.37
2017-11-07T10:51:43.804Z,18.05
2017-11-07T10:54:10.172Z,16.85
2017-11-07T10:56:36.567Z,16.62
2017-11-07T10:59:03.702Z,19.92
2017-11-07T11:01:30.799Z,19.20
2017-11-07T11:03:57.131Z,19.42
2017-11-07T11:06:24.247Z,21.27
2017-11-07T11:08:51.358Z,19.80
2017-11-07T11:11:17.708Z,20.02
2017-11-07T11:13:44.911Z,19.33
2017-11-07T11:16:11.251Z,19.40
2017-11-07T11:18:37.593Z,17.67
2017-11-07T11:21:03.991Z,19.05
2017-11-07T11:23:31.108Z,21.10
2017-11-07T11:25:57.498Z,20.27
2017-11-07T11:28:23.852Z,19.83
2017-11-07T11:30:50.207Z,20.42
2017-11-07T11:33:17.291Z,21.17
2017-11-07T11:35:43.636Z,20.85
2017-11-07T11:38:10.003Z,20.98
2017-11-07T11:40:36.359Z,20.27
2017-11-07T11:43:04.454Z,19.73
2017-11-07T11:45:30.904Z,20.58
2017-11-07T11:47:57.247Z,20.92
2017-11-07T11:50:23.635Z,22.45
2017-11-07T11:52:49.985Z,22.95
2017-11-07T11:55:16.360Z,23.42
2017-11-07T11:57:42.746Z,23.23
2017-11-07T12:00:10.170Z,23.60
2017-11-07T12:02:36.514Z,22.30
2017-11-07T12:05:03.664Z,22.48
2017-11-07T12:07:30.776Z,21.95
2017-11-07T12:09:57.132Z,23.73
2017-11-07T12:12:23.530Z,26.35
2017-11-07T12:14:49.902Z,26.48
2017-11-07T12:17:16.262Z,27.58
2017-11-07T12:19:43.402Z,23.08
2017-11-07T12:22:10.527Z,21.23
2017-11-07T12:24:36.884Z,21.58
2017-11-07T12:27:03.992Z,22.42
2017-11-07T12:29:30.358Z,22.92
2017-11-07T12:31:57.446Z,24.33
2017-11-07T12:34:23.812Z,25.42
2017-11-07T12:36:50.187Z,22.45
2017-11-07T12:39:17.254Z,23.45
2017-11-07T12:41:43.618Z,22.02
2017-11-07T12:44:09.963Z,26.02
2017-11-07T12:46:36.296Z,23.77
2017-11-07T12:49:02.651Z,22.55
2017-11-07T12:51:41.860Z,24.37
2017-11-07T12:54:08.220Z,23.77
2017-11-07T12:56:35.316Z,23.80
2017-11-07T12:59:01.639Z,23.27
2017-11-07T13:01:28.003Z,26.45
2017-11-07T13:03:54.400Z,26.08
2017-11-07T13:06:20.736Z,26.35
2017-11-07T13:08:47.116Z,24.83
2017-11-07T13:11:14.187Z,25.08
2017-11-07T13:13:41.264Z,25.33
2017-11-07T13:16:07.617Z,27.48
2017-11-07T13:18:33.969Z,27.17
2017-11-07T13:21:00.303Z,27.50
2017-11-07T13:23:26.675Z,26.55
2017-11-07T13:25:53.004Z,25.48
2017-11-07T13:28:19.342Z,27.67
2017-11-07T13:30:45.724Z,28.52
2017-11-07T13:33:12.063Z,26.85
2017-11-07T13:35:38.607Z,28.17
2017-11-07T13:38:05.005Z,27.80
2017-11-07T13:40:31.364Z,26.85
2017-11-07T13:42:57.702Z,27.50
2017-11-07T13:45:24.084Z,27.80
2017-11-07T13:47:50.449Z,30.37
2017-11-07T13:50:16.805Z,26.58
2017-11-07T13:52:43.241Z,27.65
2017-11-07T13:55:09.571Z,25.75
2017-11-07T13:57:35.901Z,27.67
2017-11-07T14:00:02.344Z,28.38
2017-11-07T14:02:29.422Z,28.02
2017-11-07T14:04:55.799Z,27.95
2017-11-07T14:07:22.160Z,26.90
2017-11-07T14:09:48.526Z,27.05
2017-11-07T14:12:14.881Z,28.55
2017-11-07T14:14:41.255Z,28.08
2017-11-07T14:17:08.346Z,28.58
2017-11-07T14:19:34.689Z,27.83
2017-11-07T14:22:01.039Z,31.23
2017-11-07T14:24:27.399Z,29.27
2017-11-07T14:26:54.556Z,29.80
2017-11-07T14:29:21.716Z,27.75
2017-11-07T14:31:48.111Z,27.20
2017-11-07T14:34:14.459Z,29.45
2017-11-07T14:36:40.819Z,28.17
2017-11-07T14:39:07.175Z,28.58
2017-11-07T14:41:33.554Z,29.30
2017-11-07T14:43:59.940Z,26.42
2017-11-07T14:46:27.364Z,26.35
2017-11-07T14:48:54.480Z,27.02
2017-11-07T14:51:20.816Z,25.77
2017-11-07T14:53:47.195Z,25.90
2017-11-07T14:56:13.547Z,25.30
2017-11-07T14:58:39.904Z,23.05
2017-11-07T15:01:07.267Z,27.30
2017-11-07T15:03:33.631Z,25.55
2017-11-07T15:06:00.721Z,27.37
2017-11-07T15:08:27.824Z,26.75
2017-11-07T15:10:54.902Z,26.65
2017-11-07T15:13:21.239Z,27.70
2017-11-07T15:15:47.607Z,28.12
2017-11-07T15:18:13.972Z,26.30
2017-11-07T15:20:41.065Z,25.88
2017-11-07T15:23:07.406Z,25.75
2017-11-07T15:25:33.765Z,25.62
2017-11-07T15:28:00.091Z,29.02
2017-11-07T15:30:26.440Z,26.42
2017-11-07T15:32:53.559Z,29.00
2017-11-07T15:35:19.913Z,27.00
2017-11-07T15:37:46.279Z,27.50
2017-11-07T15:40:12.634Z,27.15
2017-11-07T15:42:39.695Z,27.20
2017-11-07T15:45:06.082Z,26.73
2017-11-07T15:47:34.159Z,26.50
2017-11-07T15:50:01.225Z,24.58
2017-11-07T15:52:28.589Z,27.20
2017-11-07T15:54:54.912Z,25.45
2017-11-07T15:57:21.246Z,28.33
2017-11-07T15:59:47.607Z,25.55
2017-11-07T16:02:13.955Z,27.80
2017-11-07T16:04:40.283Z,25.75
2017-11-07T16:07:06.633Z,25.20
2017-11-07T16:09:33.438Z,26.05
2017-11-07T16:11:59.779Z,26.35
2017-11-07T16:14:26.163Z,23.80
2017-11-07T16:16:52.508Z,24.02
2017-11-07T16:19:18.854Z,26.37
2017-11-07T16:21:45.228Z,28.23
2017-11-07T16:24:11.560Z,25.08
2017-11-07T16:26:37.900Z,26.10
2017-11-07T16:29:05.019Z,24.70
2017-11-07T16:31:31.366Z,26.60
2017-11-07T16:33:57.728Z,25.90
2017-11-07T16:36:24.831Z,32.25
2017-11-07T16:38:51.156Z,30.15
2017-11-07T16:41:17.498Z,30.33
2017-11-07T16:43:43.843Z,29.73
2017-11-07T16:46:10.167Z,27.98
2017-11-07T16:48:36.503Z,29.35
2017-11-07T16:51:02.851Z,29.08
2017-11-07T16:53:29.174Z,32.60
2017-11-07T16:55:55.505Z,32.20
2017-11-07T16:58:21.865Z,31.20
2017-11-07T17:00:48.987Z,32.42
2017-11-07T17:03:16.072Z,29.87
2017-11-07T17:05:43.171Z,27.67
2017-11-07T17:08:09.518Z,24.90
2017-11-07T17:10:35.873Z,28.10
2017-11-07T17:13:02.956Z,47.72
2017-11-07T17:15:30.319Z,56.37
2017-11-07T17:17:56.647Z,37.10
2017-11-07T17:20:23.027Z,29.85
2017-11-07T17:22:50.112Z,28.85
2017-11-07T17:25:16.431Z,26.67
2017-11-07T17:27:43.519Z,26.83
2017-11-07T17:30:09.868Z,34.33
2017-11-07T17:32:36.196Z,35.25
2017-11-07T17:35:02.623Z,38.70
2017-11-07T17:37:28.960Z,40.50
2017-11-07T17:39:56.342Z,33.65
2017-11-07T17:42:22.711Z,33.72
2017-11-07T17:44:49.054Z,29.40
2017-11-07T17:47:15.380Z,29.92
2017-11-07T17:49:41.732Z,29.60
2017-11-07T17:52:08.065Z,29.12
2017-11-07T17:54:34.419Z,29.23
2017-11-07T17:57:00.786Z,29.50
2017-11-07T17:59:27.864Z,29.45
2017-11-07T18:01:54.210Z,29.83
2017-11-07T18:04:20.543Z,30.55
2017-11-07T18:06:46.867Z,31.33
2017-11-07T18:09:13.232Z,30.92
2017-11-07T18:11:40.584Z,31.08
2017-11-07T18:14:06.906Z,28.70
2017-11-07T18:16:33.267Z,29.90
2017-11-07T18:18:59.600Z,26.25
2017-11-07T18:21:25.931Z,28.05
2017-11-07T18:23:52.284Z,30.67
2017-11-07T18:26:18.595Z,39.75
2017-11-07T18:28:45.671Z,32.78
2017-11-07T18:31:12.027Z,27.77
2017-11-07T18:33:38.368Z,28.92
2017-11-07T18:36:04.698Z,28.05
2017-11-07T18:38:31.051Z,30.00
2017-11-07T18:40:57.410Z,31.62
2017-11-07T18:43:24.507Z,28.52
2017-11-07T18:45:50.859Z,28.77
2017-11-07T18:48:17.231Z,29.35
2017-11-07T18:50:43.635Z,27.87
2017-11-07T18:53:09.956Z,28.48
2017-11-07T18:55:36.288Z,28.77
2017-11-07T18:58:02.654Z,29.25
2017-11-07T19:00:30.791Z,32.00
2017-11-07T19:02:58.175Z,30.23
2017-11-07T19:05:25.305Z,30.95
2017-11-07T19:07:51.637Z,33.92
2017-11-07T19:10:17.991Z,33.25
2017-11-07T19:12:45.078Z,31.75
2017-11-07T19:15:11.413Z,28.73
2017-11-07T19:17:37.834Z,28.90
2017-11-07T19:20:04.171Z,28.85
2017-11-07T19:22:30.555Z,27.27
2017-11-07T19:24:56.897Z,27.33
2017-11-07T19:27:23.259Z,28.92
2017-11-07T19:29:49.623Z,42.97
2017-11-07T19:32:15.995Z,36.20
2017-11-07T19:34:43.579Z,27.52
2017-11-07T19:37:10.831Z,39.00
2017-11-07T19:39:37.977Z,28.23
2017-11-07T19:42:05.071Z,25.42
2017-11-07T19:44:31.467Z,23.98
2017-11-07T19:46:57.851Z,24.92
2017-11-07T19:49:24.227Z,24.87
2017-11-07T19:51:51.342Z,26.30
2017-11-07T19:54:17.680Z,26.50
2017-11-07T19:56:44.038Z,29.12
2017-11-07T19:59:11.135Z,28.42
2017-11-07T20:01:38.519Z,26.73
2017-11-07T20:04:04.873Z,24.45
2017-11-07T20:06:31.991Z,23.25
2017-11-07T20:08:58.368Z,26.15
2017-11-07T20:11:24.715Z,26.50
2017-11-07T20:13:51.058Z,26.33
2017-11-07T20:16:17.452Z,26.12
2017-11-07T20:18:44.534Z,27.30
2017-11-07T20:21:10.906Z,27.13
2017-11-07T20:23:37.255Z,27.17
2017-11-07T20:26:03.687Z,27.42
2017-11-07T20:28:30.033Z,23.00
2017-11-07T20:30:56.396Z,24.85
2017-11-07T20:33:22.763Z,27.62
2017-11-07T20:35:49.118Z,27.52
2017-11-07T20:38:15.467Z,27.77
2017-11-07T20:40:42.675Z,28.73
2017-11-07T20:43:09.044Z,27.08
2017-11-07T20:45:36.104Z,20.80
2017-11-07T20:48:04.235Z,30.85
2017-11-07T20:50:31.497Z,25.77
2017-11-07T20:52:57.839Z,28.33
2017-11-07T20:55:25.230Z,25.20
2017-11-07T20:57:51.609Z,24.37
2017-11-07T21:00:17.931Z,24.63
2017-11-07T21:02:44.281Z,24.33
2017-11-07T21:05:10.654Z,23.85
2017-11-07T21:07:38.209Z,23.48
2017-11-07T21:10:04.627Z,21.48
2017-11-07T21:12:31.723Z,22.10
2017-11-07T21:14:58.050Z,25.88
2017-11-07T21:17:24.392Z,28.30
2017-11-07T21:19:50.747Z,23.95
2017-11-07T21:22:17.106Z,20.48
2017-11-07T21:24:44.194Z,20.10
2017-11-07T21:27:10.572Z,22.58
2017-11-07T21:29:36.990Z,21.83
2017-11-07T21:32:03.365Z,25.42
2017-11-07T21:34:29.750Z,24.25
2017-11-07T21:36:56.082Z,22.52
2017-11-07T21:39:22.459Z,23.98
2017-11-07T21:41:48.816Z,24.27
2017-11-07T21:44:15.175Z,24.50
2017-11-07T21:46:41.500Z,29.50
2017-11-07T21:49:07.875Z,29.08
2017-11-07T21:51:34.986Z,28.27
2017-11-07T21:54:01.315Z,25.50
2017-11-07T21:56:27.818Z,26.65
2017-11-07T21:58:54.185Z,24.60
2017-11-07T22:01:21.515Z,24.12
2017-11-07T22:03:47.910Z,23.95
2017-11-07T22:06:15.250Z,26.83
2017-11-07T22:08:41.589Z,25.52
2017-11-07T22:11:07.915Z,28.25
2017-11-07T22:13:34.239Z,27.35
2017-11-07T22:16:00.580Z,26.05
2017-11-07T22:18:26.902Z,24.98
2017-11-07T22:20:53.271Z,25.42
2017-11-07T22:23:25.270Z,25.37
2017-11-07T22:25:51.594Z,27.62
2017-11-07T22:28:17.938Z,27.42
2017-11-07T22:30:44.304Z,27.90
2017-11-07T22:33:10.636Z,24.75
2017-11-07T22:35:36.972Z,29.70
2017-11-07T22:38:04.088Z,28.87
2017-11-07T22:40:30.427Z,28.23
2017-11-07T22:42:56.746Z,28.87
2017-11-07T22:45:23.117Z,26.52
2017-11-07T22:47:49.455Z,27.00
2017-11-07T22:50:15.792Z,25.42
2017-11-07T22:52:43.894Z,30.23
2017-11-07T22:55:10.262Z,29.65
2017-11-07T22:57:36.615Z,28.75
2017-11-07T23:00:03.015Z,26.70
2017-11-07T23:02:29.350Z,25.42
2017-11-07T23:04:55.698Z,25.20
2017-11-07T23:07:22.015Z,27.62
2017-11-07T23:09:48.371Z,28.60
2017-11-07T23:12:14.682Z,26.10
2017-11-07T23:14:41.038Z,27.05
2017-11-07T23:17:07.367Z,26.55
2017-11-07T23:19:33.706Z,22.58
2017-11-07T23:22:00.042Z,22.42
2017-11-07T23:24:26.396Z,20.77
2017-11-07T23:26:53.503Z,22.75
2017-11-07T23:29:19.883Z,21.65
2017-11-07T23:31:46.194Z,22.60
2017-11-07T23:34:13.293Z,20.73
2017-11-07T23:36:39.659Z,20.70
2017-11-07T23:39:05.999Z,19.62
2017-11-07T23:41:32.327Z,21.37
2017-11-07T23:43:58.667Z,20.85
2017-11-07T23:46:25.751Z,23.33
2017-11-07T23:48:52.087Z,20.90
2017-11-07T23:51:19.466Z,22.90
2017-11-07T23:53:45.798Z,20.10
2017-11-07T23:56:12.167Z,22.55
2017-11-07T23:58:39.255Z,21.95
